ADDS METAR Data

Data at: 0532 UTC 19 Jan 2018

METAR for:KRKD (Rockland/Knox Cnty, ME, US)
Text:KRKD 190456Z AUTO 28004KT 10SM CLR M12/M14 A2989 RMK AO2 SLP123 T11221139 410111128 FZRANO
Temperature:-12.2°C ( 10°F)
Dewpoint:-13.9°C ( 7°F) [RH = 87%]
Pressure (altimeter):29.89 inches Hg (1012.3 mb) [Sea level pressure: 1012.3 mb]
Winds:from the W (280 degrees) at 5 MPH (4 knots; 2.1 m/s)
Visibility:10 or more sm (16+ km)
Ceiling:at least 12,000 feet AGL
Clouds:sky clear below 12,000 feet AGL
QC Flag:automated observation with no human augmentation